sensor_id;sensor_type;location;lat;lon;timestamp;P1;durP1;ratioP1;P2;durP2;ratioP2
37365;SDS011;23239;51.504;7.456;2022-09-09T00:01:01;3.3;;;0.9;;
37365;SDS011;23239;51.504;7.456;2022-09-09T00:06:02;4.6;;;1.3;;
37365;SDS011;23239;51.504;7.456;2022-09-09T00:11:01;2.6;;;0.9;;
37365;SDS011;23239;51.504;7.456;2022-09-09T00:16:01;2.7;;;0.8;;
37365;SDS011;23239;51.504;7.456;2022-09-09T00:21:01;3.1;;;0.8;;
37365;SDS011;23239;51.504;7.456;2022-09-09T00:26:02;4.7;;;1.3;;
37365;SDS011;23239;51.504;7.456;2022-09-09T00:31:00;4;;;1.3;;
37365;SDS011;23239;51.504;7.456;2022-09-09T00:36:00;3.9;;;0.9;;
37365;SDS011;23239;51.504;7.456;2022-09-09T00:41:00;2.9;;;0.9;;
37365;SDS011;23239;51.504;7.456;2022-09-09T00:46:05;2.9;;;0.9;;
37365;SDS011;23239;51.504;7.456;2022-09-09T00:51:00;2;;;0.6;;
37365;SDS011;23239;51.504;7.456;2022-09-09T00:56:01;1.7;;;0.6;;
37365;SDS011;23239;51.504;7.456;2022-09-09T01:01:02;3;;;0.8;;
37365;SDS011;23239;51.504;7.456;2022-09-09T01:06:01;1.7;;;0.7;;
37365;SDS011;23239;51.504;7.456;2022-09-09T01:11:00;3.9;;;1;;
37365;SDS011;23239;51.504;7.456;2022-09-09T01:16:00;2.9;;;0.8;;
37365;SDS011;23239;51.504;7.456;2022-09-09T01:21:02;3.3;;;0.9;;
37365;SDS011;23239;51.504;7.456;2022-09-09T01:26:32;3.8;;;1;;
37365;SDS011;23239;51.504;7.456;2022-09-09T01:31:00;3.9;;;1;;
37365;SDS011;23239;51.504;7.456;2022-09-09T01:36:00;1.8;;;0.8;;
37365;SDS011;23239;51.504;7.456;2022-09-09T01:41:00;3.5;;;1.1;;
37365;SDS011;23239;51.504;7.456;2022-09-09T01:46:00;3.4;;;1.1;;
37365;SDS011;23239;51.504;7.456;2022-09-09T01:51:00;4.2;;;1.2;;
37365;SDS011;23239;51.504;7.456;2022-09-09T01:56:02;3;;;1.1;;
37365;SDS011;23239;51.504;7.456;2022-09-09T02:01:02;6.2;;;1.4;;
37365;SDS011;23239;51.504;7.456;2022-09-09T02:06:02;2.6;;;0.9;;
37365;SDS011;23239;51.504;7.456;2022-09-09T02:11:01;4;;;1.2;;
37365;SDS011;23239;51.504;7.456;2022-09-09T02:16:00;3.7;;;1.1;;
37365;SDS011;23239;51.504;7.456;2022-09-09T02:21:00;5.2;;;1.5;;
37365;SDS011;23239;51.504;7.456;2022-09-09T02:26:00;3.5;;;0.9;;
37365;SDS011;23239;51.504;7.456;2022-09-09T02:31:00;5.5;;;1.3;;
37365;SDS011;23239;51.504;7.456;2022-09-09T02:36:00;3.6;;;1.1;;
37365;SDS011;23239;51.504;7.456;2022-09-09T02:41:00;2.5;;;1.1;;
37365;SDS011;23239;51.504;7.456;2022-09-09T02:46:02;3.4;;;1;;
37365;SDS011;23239;51.504;7.456;2022-09-09T02:51:01;5.2;;;1.3;;
37365;SDS011;23239;51.504;7.456;2022-09-09T02:56:01;3.6;;;1;;
37365;SDS011;23239;51.504;7.456;2022-09-09T03:01:00;6;;;1.2;;
37365;SDS011;23239;51.504;7.456;2022-09-09T03:06:00;3.5;;;1;;
37365;SDS011;23239;51.504;7.456;2022-09-09T03:11:00;2.4;;;1.1;;
37365;SDS011;23239;51.504;7.456;2022-09-09T03:16:00;1.8;;;0.9;;
37365;SDS011;23239;51.504;7.456;2022-09-09T03:21:00;3;;;1.2;;
37365;SDS011;23239;51.504;7.456;2022-09-09T03:26:00;2.9;;;1.3;;
37365;SDS011;23239;51.504;7.456;2022-09-09T03:31:00;3.1;;;1.2;;
37365;SDS011;23239;51.504;7.456;2022-09-09T03:36:00;3.8;;;1.1;;
37365;SDS011;23239;51.504;7.456;2022-09-09T03:41:00;4.7;;;1.2;;
37365;SDS011;23239;51.504;7.456;2022-09-09T03:46:00;2.4;;;1;;
37365;SDS011;23239;51.504;7.456;2022-09-09T03:51:00;4.3;;;1.3;;
37365;SDS011;23239;51.504;7.456;2022-09-09T03:56:00;4.7;;;1.1;;
37365;SDS011;23239;51.504;7.456;2022-09-09T04:01:01;3.9;;;1;;
37365;SDS011;23239;51.504;7.456;2022-09-09T04:06:02;3.2;;;1.2;;
37365;SDS011;23239;51.504;7.456;2022-09-09T04:11:00;3.7;;;1.1;;
37365;SDS011;23239;51.504;7.456;2022-09-09T04:16:00;3.4;;;1.2;;
37365;SDS011;23239;51.504;7.456;2022-09-09T04:21:00;2.3;;;0.9;;
37365;SDS011;23239;51.504;7.456;2022-09-09T04:26:00;5.7;;;1.5;;
37365;SDS011;23239;51.504;7.456;2022-09-09T04:31:03;2.5;;;1.1;;
37365;SDS011;23239;51.504;7.456;2022-09-09T04:36:00;5.6;;;1.3;;
37365;SDS011;23239;51.504;7.456;2022-09-09T04:41:00;5;;;1.2;;
37365;SDS011;23239;51.504;7.456;2022-09-09T04:46:00;3.6;;;1.1;;
37365;SDS011;23239;51.504;7.456;2022-09-09T04:51:00;5.2;;;1.5;;
37365;SDS011;23239;51.504;7.456;2022-09-09T04:56:01;5.4;;;1.4;;
37365;SDS011;23239;51.504;7.456;2022-09-09T05:01:04;4.6;;;1.4;;
37365;SDS011;23239;51.504;7.456;2022-09-09T05:06:04;4.6;;;1.5;;
37365;SDS011;23239;51.504;7.456;2022-09-09T05:11:00;6.1;;;1.7;;
37365;SDS011;23239;51.504;7.456;2022-09-09T05:16:00;4.5;;;1.3;;
37365;SDS011;23239;51.504;7.456;2022-09-09T05:21:00;4.9;;;1.6;;
37365;SDS011;23239;51.504;7.456;2022-09-09T05:26:00;5.3;;;1.4;;
37365;SDS011;23239;51.504;7.456;2022-09-09T05:31:00;7.9;;;1.5;;
37365;SDS011;23239;51.504;7.456;2022-09-09T05:36:01;5.9;;;1.7;;
37365;SDS011;23239;51.504;7.456;2022-09-09T05:41:00;5.2;;;1.1;;
37365;SDS011;23239;51.504;7.456;2022-09-09T05:46:00;5.8;;;1.4;;
37365;SDS011;23239;51.504;7.456;2022-09-09T05:51:00;7.2;;;1.5;;
37365;SDS011;23239;51.504;7.456;2022-09-09T05:56:00;4.5;;;1.2;;
37365;SDS011;23239;51.504;7.456;2022-09-09T06:01:01;5.6;;;1.5;;
37365;SDS011;23239;51.504;7.456;2022-09-09T06:06:03;5;;;1.7;;
37365;SDS011;23239;51.504;7.456;2022-09-09T06:11:01;7.8;;;1.8;;
37365;SDS011;23239;51.504;7.456;2022-09-09T06:16:00;3.3;;;1.3;;
37365;SDS011;23239;51.504;7.456;2022-09-09T06:21:00;8.1;;;1.5;;
37365;SDS011;23239;51.504;7.456;2022-09-09T06:26:01;7.1;;;1.5;;
37365;SDS011;23239;51.504;7.456;2022-09-09T06:31:00;7;;;1.5;;
37365;SDS011;23239;51.504;7.456;2022-09-09T06:36:00;6.1;;;1.2;;
37365;SDS011;23239;51.504;7.456;2022-09-09T06:41:00;5.4;;;1.3;;
37365;SDS011;23239;51.504;7.456;2022-09-09T06:46:01;5.8;;;1.3;;
37365;SDS011;23239;51.504;7.456;2022-09-09T06:51:00;4.7;;;1.6;;
37365;SDS011;23239;51.504;7.456;2022-09-09T06:56:00;5.6;;;1.5;;
37365;SDS011;23239;51.504;7.456;2022-09-09T07:01:02;8.2;;;1.3;;
37365;SDS011;23239;51.504;7.456;2022-09-09T07:06:00;4.5;;;1.3;;
37365;SDS011;23239;51.504;7.456;2022-09-09T07:11:02;5.4;;;1.1;;
37365;SDS011;23239;51.504;7.456;2022-09-09T07:16:03;3.3;;;1.2;;
37365;SDS011;23239;51.504;7.456;2022-09-09T07:21:00;6.7;;;1.4;;
37365;SDS011;23239;51.504;7.456;2022-09-09T07:26:00;6.5;;;1.7;;
37365;SDS011;23239;51.504;7.456;2022-09-09T07:31:00;3.7;;;1.2;;
37365;SDS011;23239;51.504;7.456;2022-09-09T07:36:02;5.1;;;1.4;;
37365;SDS011;23239;51.504;7.456;2022-09-09T07:41:04;5;;;1.3;;
37365;SDS011;23239;51.504;7.456;2022-09-09T07:46:00;5.3;;;1.3;;
37365;SDS011;23239;51.504;7.456;2022-09-09T07:51:04;4.5;;;1.2;;
37365;SDS011;23239;51.504;7.456;2022-09-09T07:56:04;4.6;;;1.4;;
37365;SDS011;23239;51.504;7.456;2022-09-09T08:01:00;5;;;1.3;;
37365;SDS011;23239;51.504;7.456;2022-09-09T08:06:00;5.3;;;1.3;;
37365;SDS011;23239;51.504;7.456;2022-09-09T08:11:02;6.2;;;1.4;;
37365;SDS011;23239;51.504;7.456;2022-09-09T08:16:04;6.2;;;1.4;;
37365;SDS011;23239;51.504;7.456;2022-09-09T08:21:04;7.1;;;1.1;;
37365;SDS011;23239;51.504;7.456;2022-09-09T08:26:04;6.7;;;1.5;;
37365;SDS011;23239;51.504;7.456;2022-09-09T08:31:08;8.1;;;1.5;;
37365;SDS011;23239;51.504;7.456;2022-09-09T08:36:00;8.8;;;1.3;;
37365;SDS011;23239;51.504;7.456;2022-09-09T08:41:04;6.8;;;1.9;;
37365;SDS011;23239;51.504;7.456;2022-09-09T08:46:01;6.8;;;1.3;;
37365;SDS011;23239;51.504;7.456;2022-09-09T08:51:00;6.3;;;1.2;;
37365;SDS011;23239;51.504;7.456;2022-09-09T08:56:01;4.6;;;1.4;;
37365;SDS011;23239;51.504;7.456;2022-09-09T09:01:03;5.6;;;1.2;;
37365;SDS011;23239;51.504;7.456;2022-09-09T09:06:01;4.6;;;1.2;;
37365;SDS011;23239;51.504;7.456;2022-09-09T09:11:00;5.7;;;1.3;;
37365;SDS011;23239;51.504;7.456;2022-09-09T09:16:02;6.5;;;1.4;;
37365;SDS011;23239;51.504;7.456;2022-09-09T09:21:03;7.5;;;1.4;;
37365;SDS011;23239;51.504;7.456;2022-09-09T09:26:00;4.5;;;1.2;;
37365;SDS011;23239;51.504;7.456;2022-09-09T09:31:03;4.5;;;1.2;;
37365;SDS011;23239;51.504;7.456;2022-09-09T09:36:00;6.8;;;1.3;;
37365;SDS011;23239;51.504;7.456;2022-09-09T09:41:00;6.6;;;1.2;;
37365;SDS011;23239;51.504;7.456;2022-09-09T09:46:00;4.3;;;1.3;;
37365;SDS011;23239;51.504;7.456;2022-09-09T09:51:01;6.7;;;1.2;;
37365;SDS011;23239;51.504;7.456;2022-09-09T09:56:00;4.6;;;1;;
37365;SDS011;23239;51.504;7.456;2022-09-09T10:01:00;6;;;1.1;;
37365;SDS011;23239;51.504;7.456;2022-09-09T10:06:00;7.1;;;1.3;;
37365;SDS011;23239;51.504;7.456;2022-09-09T10:11:05;5;;;1.4;;
37365;SDS011;23239;51.504;7.456;2022-09-09T10:16:06;6.2;;;1.4;;
37365;SDS011;23239;51.504;7.456;2022-09-09T10:21:02;5.8;;;1.2;;
37365;SDS011;23239;51.504;7.456;2022-09-09T10:26:04;7.1;;;1.4;;
37365;SDS011;23239;51.504;7.456;2022-09-09T10:31:03;6.2;;;1.5;;
37365;SDS011;23239;51.504;7.456;2022-09-09T10:36:02;5.5;;;1.3;;
37365;SDS011;23239;51.504;7.456;2022-09-09T10:41:03;4.6;;;1.2;;
37365;SDS011;23239;51.504;7.456;2022-09-09T10:46:02;4;;;1.1;;
37365;SDS011;23239;51.504;7.456;2022-09-09T10:51:02;5.4;;;1.4;;
37365;SDS011;23239;51.504;7.456;2022-09-09T10:56:01;5.2;;;1.1;;
37365;SDS011;23239;51.504;7.456;2022-09-09T11:01:01;4.4;;;1;;
37365;SDS011;23239;51.504;7.456;2022-09-09T11:06:01;3.5;;;1;;
37365;SDS011;23239;51.504;7.456;2022-09-09T11:11:01;3;;;0.9;;
37365;SDS011;23239;51.504;7.456;2022-09-09T11:16:01;3.1;;;0.9;;
37365;SDS011;23239;51.504;7.456;2022-09-09T11:21:00;3.6;;;1;;
37365;SDS011;23239;51.504;7.456;2022-09-09T11:26:00;3.7;;;0.8;;
37365;SDS011;23239;51.504;7.456;2022-09-09T11:31:04;4.2;;;1;;
37365;SDS011;23239;51.504;7.456;2022-09-09T11:36:03;4.1;;;0.9;;
37365;SDS011;23239;51.504;7.456;2022-09-09T11:41:00;3.3;;;0.9;;
37365;SDS011;23239;51.504;7.456;2022-09-09T11:46:00;2.3;;;0.8;;
37365;SDS011;23239;51.504;7.456;2022-09-09T11:51:02;6.1;;;1.2;;
37365;SDS011;23239;51.504;7.456;2022-09-09T11:56:02;5;;;0.8;;
37365;SDS011;23239;51.504;7.456;2022-09-09T12:01:00;7.3;;;1.1;;
37365;SDS011;23239;51.504;7.456;2022-09-09T12:06:08;4.7;;;0.8;;
37365;SDS011;23239;51.504;7.456;2022-09-09T12:11:00;5;;;1.1;;
37365;SDS011;23239;51.504;7.456;2022-09-09T12:16:00;3.2;;;0.8;;
37365;SDS011;23239;51.504;7.456;2022-09-09T12:21:02;2.8;;;0.8;;
37365;SDS011;23239;51.504;7.456;2022-09-09T12:26:03;3.4;;;0.7;;
37365;SDS011;23239;51.504;7.456;2022-09-09T12:31:01;2.8;;;1;;
37365;SDS011;23239;51.504;7.456;2022-09-09T12:36:00;4.3;;;0.8;;
37365;SDS011;23239;51.504;7.456;2022-09-09T12:41:00;6.6;;;1.2;;
37365;SDS011;23239;51.504;7.456;2022-09-09T12:46:01;5.2;;;1.3;;
37365;SDS011;23239;51.504;7.456;2022-09-09T12:51:00;4.3;;;0.9;;
37365;SDS011;23239;51.504;7.456;2022-09-09T12:56:00;4.5;;;1;;
37365;SDS011;23239;51.504;7.456;2022-09-09T13:01:01;3.8;;;1.2;;
37365;SDS011;23239;51.504;7.456;2022-09-09T13:06:10;2.6;;;0.9;;
37365;SDS011;23239;51.504;7.456;2022-09-09T13:11:01;4.1;;;1.1;;
37365;SDS011;23239;51.504;7.456;2022-09-09T13:16:00;3.6;;;1.1;;
37365;SDS011;23239;51.504;7.456;2022-09-09T13:21:00;6.8;;;1.5;;
37365;SDS011;23239;51.504;7.456;2022-09-09T13:26:01;3.7;;;1.1;;
37365;SDS011;23239;51.504;7.456;2022-09-09T13:31:00;5.9;;;1.3;;
37365;SDS011;23239;51.504;7.456;2022-09-09T13:36:01;4.9;;;1.2;;
37365;SDS011;23239;51.504;7.456;2022-09-09T13:41:00;6.1;;;1.3;;
37365;SDS011;23239;51.504;7.456;2022-09-09T13:46:01;4.8;;;1.3;;
37365;SDS011;23239;51.504;7.456;2022-09-09T13:51:01;3.2;;;1.1;;
37365;SDS011;23239;51.504;7.456;2022-09-09T13:56:00;2;;;0.9;;
37365;SDS011;23239;51.504;7.456;2022-09-09T14:01:00;4;;;1.2;;
37365;SDS011;23239;51.504;7.456;2022-09-09T14:06:00;2.2;;;0.6;;
37365;SDS011;23239;51.504;7.456;2022-09-09T14:11:00;4.9;;;1.5;;
37365;SDS011;23239;51.504;7.456;2022-09-09T14:16:00;4.7;;;1.3;;
37365;SDS011;23239;51.504;7.456;2022-09-09T14:21:00;5.1;;;1.3;;
37365;SDS011;23239;51.504;7.456;2022-09-09T14:26:00;3.1;;;1.3;;
37365;SDS011;23239;51.504;7.456;2022-09-09T14:31:00;5.7;;;1.3;;
37365;SDS011;23239;51.504;7.456;2022-09-09T14:36:01;4.9;;;1.3;;
37365;SDS011;23239;51.504;7.456;2022-09-09T14:41:00;3;;;1.1;;
37365;SDS011;23239;51.504;7.456;2022-09-09T14:46:04;6.9;;;1.3;;
37365;SDS011;23239;51.504;7.456;2022-09-09T14:51:04;3.7;;;1.3;;
37365;SDS011;23239;51.504;7.456;2022-09-09T14:56:04;2;;;0.8;;
37365;SDS011;23239;51.504;7.456;2022-09-09T15:01:02;3.9;;;1.3;;
37365;SDS011;23239;51.504;7.456;2022-09-09T15:06:04;4.1;;;1.1;;
37365;SDS011;23239;51.504;7.456;2022-09-09T15:11:00;2.8;;;1.1;;
37365;SDS011;23239;51.504;7.456;2022-09-09T15:16:03;6.1;;;1.7;;
37365;SDS011;23239;51.504;7.456;2022-09-09T15:21:00;4.9;;;1.4;;
37365;SDS011;23239;51.504;7.456;2022-09-09T15:26:00;3.3;;;1.2;;
37365;SDS011;23239;51.504;7.456;2022-09-09T15:31:00;2.3;;;1;;
37365;SDS011;23239;51.504;7.456;2022-09-09T15:36:00;3.3;;;1.2;;
37365;SDS011;23239;51.504;7.456;2022-09-09T15:41:00;5.2;;;1.2;;
37365;SDS011;23239;51.504;7.456;2022-09-09T15:46:02;6.9;;;1.9;;
37365;SDS011;23239;51.504;7.456;2022-09-09T15:51:02;7.6;;;2.1;;
37365;SDS011;23239;51.504;7.456;2022-09-09T15:56:00;8.8;;;2.9;;
37365;SDS011;23239;51.504;7.456;2022-09-09T16:01:01;5.1;;;1.7;;
37365;SDS011;23239;51.504;7.456;2022-09-09T16:06:00;8.3;;;2.4;;
37365;SDS011;23239;51.504;7.456;2022-09-09T16:11:04;7.4;;;2.7;;
37365;SDS011;23239;51.504;7.456;2022-09-09T16:16:00;6.8;;;2.9;;
37365;SDS011;23239;51.504;7.456;2022-09-09T16:21:00;5;;;2.2;;
37365;SDS011;23239;51.504;7.456;2022-09-09T16:26:00;6.4;;;2.2;;
37365;SDS011;23239;51.504;7.456;2022-09-09T16:31:03;5;;;2;;
37365;SDS011;23239;51.504;7.456;2022-09-09T16:36:04;6;;;2.3;;
37365;SDS011;23239;51.504;7.456;2022-09-09T16:41:00;4.6;;;2.1;;
37365;SDS011;23239;51.504;7.456;2022-09-09T16:46:00;4.3;;;2;;
37365;SDS011;23239;51.504;7.456;2022-09-09T16:51:01;5.1;;;2;;
37365;SDS011;23239;51.504;7.456;2022-09-09T16:56:04;5.1;;;2.5;;
37365;SDS011;23239;51.504;7.456;2022-09-09T17:01:00;5.2;;;2;;
37365;SDS011;23239;51.504;7.456;2022-09-09T17:06:00;4.3;;;1.9;;
37365;SDS011;23239;51.504;7.456;2022-09-09T17:11:00;2.8;;;1.5;;
37365;SDS011;23239;51.504;7.456;2022-09-09T17:16:03;4.3;;;2;;
37365;SDS011;23239;51.504;7.456;2022-09-09T17:21:02;3.3;;;1.9;;
37365;SDS011;23239;51.504;7.456;2022-09-09T17:26:00;5.7;;;2;;
37365;SDS011;23239;51.504;7.456;2022-09-09T17:31:00;4.1;;;1.5;;
37365;SDS011;23239;51.504;7.456;2022-09-09T17:36:01;6.9;;;2;;
37365;SDS011;23239;51.504;7.456;2022-09-09T17:41:01;4.1;;;1.9;;
37365;SDS011;23239;51.504;7.456;2022-09-09T17:46:04;4.8;;;2.2;;
37365;SDS011;23239;51.504;7.456;2022-09-09T17:51:00;4.7;;;2.3;;
37365;SDS011;23239;51.504;7.456;2022-09-09T17:56:02;3.2;;;1.8;;
37365;SDS011;23239;51.504;7.456;2022-09-09T18:01:01;6.6;;;2.3;;
37365;SDS011;23239;51.504;7.456;2022-09-09T18:06:01;4.5;;;2.2;;
37365;SDS011;23239;51.504;7.456;2022-09-09T18:11:00;4.7;;;2.2;;
37365;SDS011;23239;51.504;7.456;2022-09-09T18:16:00;5;;;2.9;;
37365;SDS011;23239;51.504;7.456;2022-09-09T18:21:01;6.1;;;2.4;;
37365;SDS011;23239;51.504;7.456;2022-09-09T18:26:00;5.9;;;2.6;;
37365;SDS011;23239;51.504;7.456;2022-09-09T18:31:03;4.1;;;1.8;;
37365;SDS011;23239;51.504;7.456;2022-09-09T18:36:02;4.2;;;2;;
37365;SDS011;23239;51.504;7.456;2022-09-09T18:41:00;4;;;2.2;;
37365;SDS011;23239;51.504;7.456;2022-09-09T18:46:02;4.1;;;1.9;;
37365;SDS011;23239;51.504;7.456;2022-09-09T18:51:01;7.8;;;2.1;;
37365;SDS011;23239;51.504;7.456;2022-09-09T18:56:01;6.2;;;2.4;;
37365;SDS011;23239;51.504;7.456;2022-09-09T19:01:01;4.8;;;1.9;;
37365;SDS011;23239;51.504;7.456;2022-09-09T19:06:01;3.6;;;1.6;;
37365;SDS011;23239;51.504;7.456;2022-09-09T19:11:00;3.4;;;1.6;;
37365;SDS011;23239;51.504;7.456;2022-09-09T19:16:02;3.1;;;1.5;;
37365;SDS011;23239;51.504;7.456;2022-09-09T19:21:08;3.2;;;1.5;;
37365;SDS011;23239;51.504;7.456;2022-09-09T19:26:00;4.4;;;1.6;;
37365;SDS011;23239;51.504;7.456;2022-09-09T19:31:02;4.6;;;1.6;;
37365;SDS011;23239;51.504;7.456;2022-09-09T19:36:01;2.8;;;1.2;;
37365;SDS011;23239;51.504;7.456;2022-09-09T19:41:01;2.9;;;1.2;;
37365;SDS011;23239;51.504;7.456;2022-09-09T19:46:01;5.7;;;1.3;;
37365;SDS011;23239;51.504;7.456;2022-09-09T19:51:01;5.6;;;1.4;;
37365;SDS011;23239;51.504;7.456;2022-09-09T19:56:00;2.9;;;1.2;;
37365;SDS011;23239;51.504;7.456;2022-09-09T20:01:04;2.5;;;1.1;;
37365;SDS011;23239;51.504;7.456;2022-09-09T20:06:00;3;;;1.2;;
37365;SDS011;23239;51.504;7.456;2022-09-09T20:11:00;3.3;;;1.3;;
37365;SDS011;23239;51.504;7.456;2022-09-09T20:16:01;3.8;;;1.5;;
37365;SDS011;23239;51.504;7.456;2022-09-09T20:21:01;3.6;;;1.1;;
37365;SDS011;23239;51.504;7.456;2022-09-09T20:26:01;5.7;;;1.6;;
37365;SDS011;23239;51.504;7.456;2022-09-09T20:31:02;7.3;;;1.8;;
37365;SDS011;23239;51.504;7.456;2022-09-09T20:36:07;4.4;;;1.5;;
37365;SDS011;23239;51.504;7.456;2022-09-09T20:41:01;4.9;;;1.6;;
37365;SDS011;23239;51.504;7.456;2022-09-09T20:46:01;3.1;;;1.5;;
37365;SDS011;23239;51.504;7.456;2022-09-09T20:51:02;4.8;;;1.5;;
37365;SDS011;23239;51.504;7.456;2022-09-09T20:56:00;4.9;;;1.7;;
37365;SDS011;23239;51.504;7.456;2022-09-09T21:01:00;2.9;;;1.3;;
37365;SDS011;23239;51.504;7.456;2022-09-09T21:06:00;4.2;;;1.6;;
37365;SDS011;23239;51.504;7.456;2022-09-09T21:11:00;5.1;;;1.4;;
37365;SDS011;23239;51.504;7.456;2022-09-09T21:16:00;3.8;;;1.6;;
37365;SDS011;23239;51.504;7.456;2022-09-09T21:21:00;4.9;;;1.6;;
37365;SDS011;23239;51.504;7.456;2022-09-09T21:26:00;4.4;;;1.8;;
37365;SDS011;23239;51.504;7.456;2022-09-09T21:31:00;4.1;;;1.7;;
37365;SDS011;23239;51.504;7.456;2022-09-09T21:36:02;4.2;;;1.8;;
37365;SDS011;23239;51.504;7.456;2022-09-09T21:41:01;5.7;;;1.5;;
37365;SDS011;23239;51.504;7.456;2022-09-09T21:46:04;3.4;;;1.6;;
37365;SDS011;23239;51.504;7.456;2022-09-09T21:51:01;4.3;;;1.8;;
37365;SDS011;23239;51.504;7.456;2022-09-09T21:56:01;4.9;;;1.7;;
37365;SDS011;23239;51.504;7.456;2022-09-09T22:01:00;5.9;;;2;;
37365;SDS011;23239;51.504;7.456;2022-09-09T22:06:00;3.7;;;1.9;;
37365;SDS011;23239;51.504;7.456;2022-09-09T22:11:04;4.7;;;2.1;;
37365;SDS011;23239;51.504;7.456;2022-09-09T22:16:01;3.7;;;1.7;;
37365;SDS011;23239;51.504;7.456;2022-09-09T22:21:04;4;;;2;;
37365;SDS011;23239;51.504;7.456;2022-09-09T22:26:00;5.4;;;2;;
37365;SDS011;23239;51.504;7.456;2022-09-09T22:31:00;3.9;;;1.8;;
37365;SDS011;23239;51.504;7.456;2022-09-09T22:36:00;5.2;;;2.1;;
37365;SDS011;23239;51.504;7.456;2022-09-09T22:41:01;5.3;;;2.2;;
37365;SDS011;23239;51.504;7.456;2022-09-09T22:46:01;5.8;;;2.3;;
37365;SDS011;23239;51.504;7.456;2022-09-09T22:51:00;5.4;;;2.3;;
37365;SDS011;23239;51.504;7.456;2022-09-09T22:56:01;5.9;;;2.1;;
37365;SDS011;23239;51.504;7.456;2022-09-09T23:01:05;4.4;;;2.2;;
37365;SDS011;23239;51.504;7.456;2022-09-09T23:06:01;5.1;;;1.9;;
37365;SDS011;23239;51.504;7.456;2022-09-09T23:11:03;5.8;;;2.3;;
37365;SDS011;23239;51.504;7.456;2022-09-09T23:16:06;4.6;;;1.9;;
37365;SDS011;23239;51.504;7.456;2022-09-09T23:21:00;5.6;;;1.9;;
37365;SDS011;23239;51.504;7.456;2022-09-09T23:26:01;6.1;;;2.1;;
37365;SDS011;23239;51.504;7.456;2022-09-09T23:31:00;7.6;;;2.1;;
37365;SDS011;23239;51.504;7.456;2022-09-09T23:36:01;6.6;;;2.1;;
37365;SDS011;23239;51.504;7.456;2022-09-09T23:41:01;5.7;;;2.1;;
37365;SDS011;23239;51.504;7.456;2022-09-09T23:46:00;5.3;;;2;;
37365;SDS011;23239;51.504;7.456;2022-09-09T23:51:00;4.8;;;1.8;;
37365;SDS011;23239;51.504;7.456;2022-09-09T23:56:00;8.3;;;2.5;;
